Airfield :
LOGIN :

Register | Disclaimer

   EN    FR    IT 

 










Legend :    VFR   Marginal VFR   IFR   Intensive IFR   Very Intensive IFR
Visi :
Ceiling :
>= 8 km
>= 3000ft
5 to 8 km
1000 to 3000 ft
1500m to 5 km
500 to 1000 ft
800 to 1500m
200 to 500 ft
< 800m
< 200 ft
Symbols :   Thunderstorms  Fog  Heavy snow  Heavy precipitations  Wind > 20 kt
SIGMETs :     Misc.  Thunderstorms  Icing  Turbulence  Mountain Waves  Volcanic Ashes






- Airport Elevation : 311 ft
- IATA code : SVL


EFSA - Savonlinna

CURRENT METAR :
  • 250150Z AUTO 30005KT CAVOK 12/11 Q1016

EXPIRED METARs :
  • 250120Z AUTO 29003KT CAVOK 11/11 Q1016
  • 250050Z AUTO 30004KT 9999 BCFG NCD 12/12 Q1016
  • 250020Z AUTO VRB01KT 1800 0900 R30/1000 BCFG NCD 10/10 Q1016
  • 242350Z AUTO 30001KT 1300 0500 R30/1300 BCFG NCD 11/10 Q1016
  • 242320Z AUTO VRB02KT 2900 1200 R30/P2000D BR FEW048 11/11 Q1016
  • 242250Z AUTO VRB01KT 9999 4900 FEW045 11/11 Q1016
  • 242150Z AUTO VRB01KT CAVOK 12/12 Q1015
  • 242120Z AUTO 29003KT CAVOK 13/12 Q1015
  • 242050Z AUTO 29004KT CAVOK 15/13 Q1015

Expired Forecast.



MET'MAP, your aeronautical weather chart ! - Copyright ORBIFLY December 2007 - Disclaimer

ORBIFLY MET'MAP TEAM :

Programming & Development : Alexandra Zaïnal
Original concept : Baudouin d'Aumeries
Technical & hardware support : Manuel Goepfert
Assistance : Marc-Olivier Méhu




SOURCES & CREDITS :

   NOAA